Time;durP1;ratioP1;P1;durP2;ratioP2;P2;SDS_P1;SDS_P2;PMS_P1;PMS_P2;Temp;Humidity;BMP_temperature;BMP_pressure;BME280_temperature;BME280_humidity;BME280_pressure;Samples;Min_cycle;Max_cycle;Signal;HPM_P1;HPM_P2
2021/12/08 00:01:24;;;;;;;7.22;4.60;;;;;;;5.88;100.00;97621.84;5069501;28;20566;-74
2021/12/08 00:03:51;;;;;;;6.20;5.10;;;;;;;5.90;100.00;97611.94;5069574;28;20193;-75
2021/12/08 00:06:18;;;;;;;8.13;4.50;;;;;;;5.89;100.00;97602.19;5075302;28;20547;-74
2021/12/08 00:08:59;;;;;;;8.50;4.97;;;;;;;5.84;100.00;97590.97;5068990;28;20537;-74
2021/12/08 00:14:14;;;;;;;5.85;4.57;;;;;;;5.90;100.00;97593.22;5063861;28;20204;-74
2021/12/08 00:16:42;;;;;;;4.78;4.20;;;;;;;5.90;100.00;97608.38;5058967;28;20201;-74
2021/12/08 00:19:09;;;;;;;7.75;4.15;;;;;;;5.90;100.00;97606.59;5071089;28;20208;-74
2021/12/08 00:21:36;;;;;;;7.80;5.18;;;;;;;5.84;100.00;97610.53;5066625;28;20186;-74
2021/12/08 00:24:02;;;;;;;4.97;4.45;;;;;;;5.93;100.00;97610.84;5071198;28;20280;-75
2021/12/08 00:26:29;;;;;;;5.95;3.80;;;;;;;6.10;100.00;97601.66;5072703;28;20193;-74
2021/12/08 00:28:56;;;;;;;4.82;3.67;;;;;;;6.20;100.00;97597.38;5070492;28;20204;-73
2021/12/08 00:31:22;;;;;;;3.60;3.30;;;;;;;6.26;100.00;97596.91;5074762;28;20193;-75
2021/12/08 00:33:50;;;;;;;4.35;3.20;;;;;;;6.27;100.00;97601.28;5061637;28;20231;-72
2021/12/08 00:36:19;;;;;;;6.13;3.25;;;;;;;6.43;100.00;97596.53;5068749;28;20203;-74
2021/12/08 00:38:46;;;;;;;4.13;2.80;;;;;;;6.42;100.00;97584.16;5069845;28;20582;-74
2021/12/08 00:41:13;;;;;;;4.70;3.08;;;;;;;6.51;100.00;97597.78;5068801;28;20195;-74
2021/12/08 00:43:40;;;;;;;3.78;2.90;;;;;;;6.71;100.00;97599.00;5068750;28;20276;-72
2021/12/08 00:46:08;;;;;;;4.60;3.63;;;;;;;6.80;100.00;97598.31;5074554;28;20638;-73
2021/12/08 00:48:34;;;;;;;2.92;2.53;;;;;;;6.86;100.00;97598.69;5074176;28;20631;-73
2021/12/08 00:51:03;;;;;;;4.75;2.70;;;;;;;6.96;100.00;97595.34;5067083;28;20273;-72
2021/12/08 00:53:30;;;;;;;2.22;1.83;;;;;;;7.03;100.00;97599.25;5064914;28;20209;-75
2021/12/08 00:55:57;;;;;;;4.15;2.53;;;;;;;7.02;100.00;97605.59;5059690;28;20200;-72
2021/12/08 00:58:24;;;;;;;2.60;2.10;;;;;;;7.23;100.00;97609.28;5062568;28;20650;-74
2021/12/08 01:00:52;;;;;;;3.55;1.92;;;;;;;7.08;100.00;97589.06;5070143;28;20608;-73
2021/12/08 01:03:20;;;;;;;2.55;2.08;;;;;;;7.08;100.00;97594.44;5066195;28;20205;-72
2021/12/08 01:05:51;;;;;;;2.00;1.50;;;;;;;7.23;100.00;97581.69;5074146;28;20288;-72
2021/12/08 01:08:20;;;;;;;2.13;1.92;;;;;;;7.35;100.00;97582.56;5073403;28;20292;-72
2021/12/08 01:10:49;;;;;;;1.95;1.67;;;;;;;7.25;100.00;97585.94;5069462;28;20202;-72
2021/12/08 01:13:17;;;;;;;4.03;2.03;;;;;;;7.30;100.00;97569.53;5069865;28;20572;-72
2021/12/08 01:15:46;;;;;;;2.63;2.03;;;;;;;7.38;100.00;97577.00;5059274;28;20199;-74
2021/12/08 01:18:13;;;;;;;2.05;1.85;;;;;;;7.43;100.00;97569.44;5066903;28;20628;-73
2021/12/08 01:20:40;;;;;;;2.10;1.88;;;;;;;7.49;100.00;97577.84;5071339;28;20191;-73
2021/12/08 01:23:06;;;;;;;2.58;2.00;;;;;;;7.38;100.00;97564.44;5069176;28;20205;-73
2021/12/08 01:25:35;;;;;;;2.60;2.05;;;;;;;7.42;99.97;97565.91;5069184;28;20236;-72
2021/12/08 01:28:01;;;;;;;2.15;1.90;;;;;;;7.46;100.00;97553.13;5067459;28;20195;-75
2021/12/08 01:30:28;;;;;;;1.70;1.60;;;;;;;7.46;100.00;97561.16;5063500;28;20200;-74
2021/12/08 01:32:56;;;;;;;4.55;2.50;;;;;;;7.47;100.00;97561.06;5066621;28;20226;-74
2021/12/08 01:35:23;;;;;;;2.30;2.10;;;;;;;7.42;100.00;97571.28;5069672;28;20212;-74
2021/12/08 01:37:49;;;;;;;3.17;2.28;;;;;;;7.52;100.00;97572.25;5073083;28;20289;-75
2021/12/08 01:40:17;;;;;;;2.10;1.90;;;;;;;7.52;100.00;97563.38;5067462;28;20183;-73
2021/12/08 01:42:48;;;;;;;1.83;1.70;;;;;;;7.59;99.68;97569.09;5073450;28;20190;-73
2021/12/08 01:48:03;;;;;;;2.95;2.17;;;;;;;7.66;98.94;97565.81;5068225;28;20198;-74
2021/12/08 01:50:31;;;;;;;2.30;2.10;;;;;;;7.56;98.74;97575.56;5065670;28;20672;-74
2021/12/08 01:52:57;;;;;;;3.08;1.92;;;;;;;7.58;99.22;97570.09;5073203;28;20281;-74
2021/12/08 01:55:24;;;;;;;5.97;2.60;;;;;;;7.59;98.78;97564.59;5058745;28;20197;-72
2021/12/08 01:57:52;;;;;;;2.20;1.88;;;;;;;7.59;99.23;97559.22;5057876;28;20276;-73
2021/12/08 02:00:22;;;;;;;2.78;1.77;;;;;;;7.58;97.80;97568.25;5066442;28;20200;-74
2021/12/08 02:02:49;;;;;;;2.35;1.80;;;;;;;7.56;99.03;97580.91;5064209;28;20196;-72
2021/12/08 02:05:16;;;;;;;3.30;2.17;;;;;;;7.62;98.69;97580.44;5071229;28;20637;-75
2021/12/08 02:07:43;;;;;;;4.72;2.05;;;;;;;7.55;98.44;97581.03;5072045;28;20192;-74
2021/12/08 02:10:11;;;;;;;3.70;2.25;;;;;;;7.47;99.48;97586.97;5068827;28;20211;-74
2021/12/08 02:12:40;;;;;;;3.05;2.65;;;;;;;7.66;98.36;97594.41;5067914;28;20195;-74
2021/12/08 02:15:13;;;;;;;5.70;2.45;;;;;;;7.57;99.11;97579.06;5062546;28;20264;-73
2021/12/08 02:17:40;;;;;;;3.17;2.33;;;;;;;7.44;100.00;97600.59;5068703;28;20189;-74
2021/12/08 02:20:10;;;;;;;3.28;2.00;;;;;;;7.52;99.58;97593.66;5067698;28;20195;-74
2021/12/08 02:22:38;;;;;;;2.53;1.90;;;;;;;7.60;99.36;97603.81;5072389;28;20203;-72
2021/12/08 02:25:07;;;;;;;2.75;2.35;;;;;;;7.68;98.70;97606.72;5068562;28;20659;-74
2021/12/08 02:27:34;;;;;;;2.47;2.25;;;;;;;7.84;97.35;97610.88;5067140;28;20189;-74
2021/12/08 02:30:11;;;;;;;3.80;2.30;;;;;;;7.75;97.65;97596.38;5066911;28;20206;-73
2021/12/08 02:49:02;;;;;;;2.67;1.63;;;;;;;7.84;95.53;97616.25;5067937;28;20686;-74
2021/12/08 02:51:28;;;;;;;2.40;1.83;;;;;;;7.90;95.09;97613.94;5070809;28;20186;-75
2021/12/08 02:53:59;;;;;;;3.13;1.95;;;;;;;7.85;95.18;97613.44;5069982;28;20557;-72
2021/12/08 02:56:26;;;;;;;3.00;1.80;;;;;;;7.70;95.78;97615.50;5068421;28;20255;-73
2021/12/08 02:58:53;;;;;;;2.60;2.30;;;;;;;7.88;95.50;97610.53;5069059;28;20195;-75
2021/12/08 03:01:19;;;;;;;4.43;2.40;;;;;;;7.89;95.12;97604.19;5065126;28;20206;-74
2021/12/08 03:03:46;;;;;;;3.30;2.30;;;;;;;7.85;94.78;97607.25;5064829;28;20210;-74
2021/12/08 03:06:13;;;;;;;3.58;2.30;;;;;;;7.87;94.63;97599.94;5065003;28;20214;-74
2021/12/08 03:08:40;;;;;;;3.15;1.88;;;;;;;7.88;94.25;97588.25;5069768;28;20203;-74
2021/12/08 03:11:09;;;;;;;4.55;2.10;;;;;;;7.74;94.70;97581.28;5071889;28;20196;-71
2021/12/08 03:13:39;;;;;;;5.63;2.10;;;;;;;7.69;95.31;97572.78;5061044;28;20215;-73
2021/12/08 03:16:06;;;;;;;3.45;1.90;;;;;;;7.59;95.84;97569.94;5065838;28;20207;-73
2021/12/08 03:18:35;;;;;;;2.75;1.98;;;;;;;7.62;95.51;97576.88;5072520;28;20641;-72
2021/12/08 03:21:04;;;;;;;3.85;1.75;;;;;;;7.52;95.33;97577.59;5074934;28;20215;-73
2021/12/08 03:23:36;;;;;;;2.58;2.20;;;;;;;7.50;96.34;97578.69;5068935;28;20238;-73
2021/12/08 03:26:06;;;;;;;2.30;2.00;;;;;;;7.53;96.46;97586.50;5069203;28;20196;-72
2021/12/08 03:28:40;;;;;;;4.07;2.03;;;;;;;7.50;97.12;97578.69;5074496;28;20187;-74
2021/12/08 03:31:11;;;;;;;3.92;2.08;;;;;;;7.54;96.38;97585.53;5058278;28;20260;-72
2021/12/08 03:33:38;;;;;;;3.20;2.10;;;;;;;7.52;96.45;97590.16;5069351;28;20230;-73
2021/12/08 03:36:05;;;;;;;2.35;2.05;;;;;;;7.45;96.99;97591.59;5061497;28;20658;-74
2021/12/08 03:38:33;;;;;;;2.55;2.17;;;;;;;7.51;97.07;97588.47;5069569;28;20197;-73
2021/12/08 03:41:02;;;;;;;3.70;2.85;;;;;;;7.55;96.66;97595.25;5067674;28;20217;-75
2021/12/08 03:43:29;;;;;;;1.98;1.73;;;;;;;7.59;95.54;97591.38;5074220;28;20196;-72
2021/12/08 03:45:58;;;;;;;4.35;2.15;;;;;;;7.55;96.14;97589.06;5067272;28;20208;-73
2021/12/08 03:48:29;;;;;;;3.15;1.88;;;;;;;7.54;95.86;97593.56;5070425;28;20197;-72
2021/12/08 03:50:57;;;;;;;5.25;2.03;;;;;;;7.56;95.63;97586.25;5071612;28;20193;-75
2021/12/08 03:53:24;;;;;;;3.72;2.13;;;;;;;7.33;96.67;97590.72;5075249;28;20195;-73
2021/12/08 03:55:53;;;;;;;3.42;2.22;;;;;;;7.46;95.42;97583.47;5074482;28;20210;-73
2021/12/08 03:58:20;;;;;;;3.25;2.10;;;;;;;7.46;95.73;97582.59;5069304;28;20238;-73
2021/12/08 04:00:50;;;;;;;5.30;2.20;;;;;;;7.38;96.81;97575.16;5072839;28;20191;-74
2021/12/08 04:03:19;;;;;;;3.60;2.10;;;;;;;7.38;96.39;97590.38;5074699;28;20209;-74
2021/12/08 04:05:52;;;;;;;2.50;2.25;;;;;;;7.29;97.04;97600.81;5075066;28;20527;-73
2021/12/08 04:08:30;;;;;;;4.05;2.20;;;;;;;7.40;96.97;97607.19;5075044;28;20214;-73
2021/12/08 04:10:58;;;;;;;4.68;1.90;;;;;;;7.41;96.83;97603.50;5067692;28;20212;-73
2021/12/08 04:13:29;;;;;;;3.80;2.50;;;;;;;7.35;97.46;97603.97;5074597;28;20193;-74
2021/12/08 04:15:57;;;;;;;5.85;2.60;;;;;;;7.40;97.14;97601.81;5067725;28;20601;-73
2021/12/08 04:18:25;;;;;;;2.63;1.90;;;;;;;7.42;96.89;97621.28;5064762;28;20212;-74
2021/12/08 04:20:53;;;;;;;5.85;1.98;;;;;;;7.42;96.70;97611.44;5067126;28;20190;-73
2021/12/08 04:23:24;;;;;;;3.17;2.05;;;;;;;7.30;96.60;97617.72;5074687;28;20193;-74
2021/12/08 04:25:54;;;;;;;5.30;2.10;;;;;;;7.23;97.65;97622.69;5068485;28;20234;-73
2021/12/08 04:28:27;;;;;;;3.80;2.38;;;;;;;7.37;97.26;97624.31;5072230;28;20568;-74
2021/12/08 04:30:58;;;;;;;4.15;2.45;;;;;;;7.41;96.30;97619.56;5069240;28;20198;-74
2021/12/08 04:33:26;;;;;;;5.32;1.85;;;;;;;7.45;96.47;97629.94;5071701;28;20246;-74
2021/12/08 04:35:54;;;;;;;2.47;2.15;;;;;;;7.37;95.58;97620.78;5073735;28;20216;-74
2021/12/08 04:38:27;;;;;;;3.20;2.20;;;;;;;7.36;96.79;97621.75;5073943;28;20199;-74
2021/12/08 04:41:02;;;;;;;3.25;1.90;;;;;;;7.40;96.05;97618.72;5059925;28;20193;-74
2021/12/08 04:43:35;;;;;;;5.57;3.33;;;;;;;7.40;95.35;97612.53;5069052;28;20190;-74
2021/12/08 04:46:11;;;;;;;3.97;1.92;;;;;;;7.44;95.64;97620.22;5073942;28;20188;-74
2021/12/08 04:49:00;;;;;;;4.63;2.30;;;;;;;7.33;96.06;97617.50;5065416;28;20197;-74
2021/12/08 04:51:42;;;;;;;2.90;1.80;;;;;;;7.30;97.05;97618.59;5072556;28;20279;-73
2021/12/08 05:03:17;;;;;;;5.50;1.92;;;;;;;7.36;94.73;97627.13;5058372;28;20230;-75
2021/12/08 05:06:05;;;;;;;2.42;1.70;;;;;;;7.29;95.46;97622.22;5066115;28;20237;-73
2021/12/08 05:08:41;;;;;;;3.60;1.85;;;;;;;7.30;95.18;97631.97;5070913;28;20268;-73
2021/12/08 05:11:11;;;;;;;3.05;1.92;;;;;;;7.32;95.36;97629.16;5067326;28;20192;-73
2021/12/08 05:13:39;;;;;;;7.53;2.10;;;;;;;7.18;96.07;97632.88;5062456;28;20189;-71
2021/12/08 05:16:06;;;;;;;4.40;2.00;;;;;;;7.24;96.75;97635.09;5069615;28;20234;-72
2021/12/08 05:18:37;;;;;;;3.22;2.08;;;;;;;7.31;95.90;97627.47;5071199;28;20195;-71
2021/12/08 05:21:10;;;;;;;4.13;2.17;;;;;;;7.30;96.09;97637.31;5071374;28;20187;-71
2021/12/08 05:23:40;;;;;;;3.03;1.90;;;;;;;7.26;96.14;97635.84;5066331;28;20275;-71
2021/12/08 05:26:10;;;;;;;3.75;2.00;;;;;;;7.27;96.11;97639.38;5070180;28;20279;-72
2021/12/08 05:28:40;;;;;;;4.47;2.33;;;;;;;7.34;96.49;97637.94;5068060;28;20198;-72
2021/12/08 05:31:12;;;;;;;6.57;2.03;;;;;;;7.26;96.83;97643.03;5063822;28;20205;-69
2021/12/08 05:33:40;;;;;;;2.90;1.60;;;;;;;7.11;97.44;97645.03;5065485;28;20650;-70
2021/12/08 05:36:08;;;;;;;3.05;1.95;;;;;;;7.22;97.20;97637.03;5066096;28;20304;-71
2021/12/08 05:38:36;;;;;;;2.75;2.00;;;;;;;7.17;98.17;97631.19;5072012;28;20274;-72
2021/12/08 05:41:08;;;;;;;3.00;2.35;;;;;;;7.17;96.65;97623.16;5067675;28;20698;-71
2021/12/08 05:43:34;;;;;;;6.30;2.55;;;;;;;7.23;96.26;97627.19;5068761;28;20217;-70
2021/12/08 05:46:03;;;;;;;2.17;1.60;;;;;;;7.06;97.94;97634.66;5069221;28;20646;-71
2021/12/08 05:48:32;;;;;;;5.43;1.85;;;;;;;6.99;98.46;97644.13;5071185;28;20614;-71
2021/12/08 05:51:06;;;;;;;5.00;2.38;;;;;;;7.09;98.72;97638.94;5072392;28;20190;-71
2021/12/08 05:53:36;;;;;;;9.57;2.58;;;;;;;7.09;98.76;97629.06;5064681;28;20194;-71
2021/12/08 05:56:03;;;;;;;2.53;1.83;;;;;;;7.20;98.35;97632.78;5063143;28;20245;-71
2021/12/08 05:58:30;;;;;;;4.57;2.10;;;;;;;7.12;98.65;97621.78;5064409;28;20622;-70
2021/12/08 06:01:00;;;;;;;4.07;2.58;;;;;;;7.22;98.99;97622.81;5065976;28;20225;-71
2021/12/08 06:03:27;;;;;;;4.93;2.90;;;;;;;7.29;97.88;97627.56;5071849;28;20194;-70
2021/12/08 06:05:57;;;;;;;4.10;2.40;;;;;;;7.22;97.54;97638.88;5064040;28;20209;-72
2021/12/08 06:08:27;;;;;;;4.15;3.28;;;;;;;7.37;97.66;97634.16;5060765;28;20203;-71
2021/12/08 06:10:56;;;;;;;4.10;2.45;;;;;;;7.39;97.14;97641.09;5067418;28;20202;-71
2021/12/08 06:13:23;;;;;;;5.68;2.60;;;;;;;7.34;97.43;97635.25;5068680;28;20190;-70
2021/12/08 06:15:50;;;;;;;4.95;2.70;;;;;;;7.43;97.20;97629.19;5062072;28;20218;-70
2021/12/08 06:18:20;;;;;;;5.50;3.00;;;;;;;7.45;96.59;97624.56;5070755;28;20199;-70
2021/12/08 06:20:47;;;;;;;3.67;2.80;;;;;;;7.40;96.32;97625.91;5069190;28;20193;-72
2021/12/08 06:23:14;;;;;;;4.05;2.58;;;;;;;7.37;96.57;97628.81;5067053;28;20192;-70
2021/12/08 06:25:41;;;;;;;4.93;2.50;;;;;;;7.47;95.67;97627.16;5067685;28;20272;-71
2021/12/08 06:28:10;;;;;;;4.43;3.00;;;;;;;7.38;95.74;97623.34;5067303;28;20205;-71
2021/12/08 06:30:45;;;;;;;3.67;2.53;;;;;;;7.40;96.13;97621.41;5071251;28;20223;-72
2021/12/08 06:33:12;;;;;;;6.50;3.90;;;;;;;7.36;96.69;97640.50;5065049;28;20355;-73
2021/12/08 06:35:42;;;;;;;2.90;2.08;;;;;;;7.31;96.82;97649.72;5064871;28;20206;-72
2021/12/08 06:38:10;;;;;;;2.42;2.10;;;;;;;7.36;95.81;97632.47;5067808;28;20194;-72
2021/12/08 06:40:43;;;;;;;5.60;3.13;;;;;;;7.31;96.89;97627.47;5066803;28;20551;-71
2021/12/08 06:43:14;;;;;;;4.50;2.47;;;;;;;7.25;97.00;97631.44;5070365;28;20283;-71
2021/12/08 06:45:47;;;;;;;7.53;5.10;;;;;;;7.28;97.64;97619.66;5063551;28;20323;-72
2021/12/08 06:48:17;;;;;;;2.63;2.03;;;;;;;7.16;97.59;97634.81;5054728;28;20208;-71
2021/12/08 06:50:49;;;;;;;4.15;2.22;;;;;;;7.13;97.66;97639.56;5067743;28;20198;-72
2021/12/08 06:53:15;;;;;;;2.95;2.03;;;;;;;7.03;98.56;97632.22;5066626;28;20281;-71
2021/12/08 06:55:46;;;;;;;5.07;3.55;;;;;;;7.21;98.06;97626.44;5056593;28;20230;-71
2021/12/08 06:58:19;;;;;;;4.88;3.72;;;;;;;7.23;97.89;97624.50;5070749;28;20189;-72
2021/12/08 07:00:58;;;;;;;4.55;3.28;;;;;;;7.20;98.22;97630.09;5070676;28;20643;-71
2021/12/08 07:03:36;;;;;;;5.20;2.15;;;;;;;7.24;97.92;97645.81;5071059;28;20200;-70
2021/12/08 07:06:10;;;;;;;4.65;2.40;;;;;;;7.31;97.25;97659.59;5070731;28;20216;-70
2021/12/08 07:08:47;;;;;;;3.90;3.20;;;;;;;7.23;97.19;97654.78;5070846;28;20204;-72
2021/12/08 07:11:17;;;;;;;4.30;3.05;;;;;;;7.26;97.65;97649.22;5065010;28;20682;-70
2021/12/08 07:13:45;;;;;;;7.22;2.80;;;;;;;7.19;97.82;97657.81;5070666;28;20423;-72
2021/12/08 07:16:15;;;;;;;4.25;2.70;;;;;;;7.30;96.49;97647.16;5070201;28;20225;-72
2021/12/08 07:18:52;;;;;;;4.78;2.83;;;;;;;7.16;97.10;97637.50;5069998;28;20237;-70
2021/12/08 07:21:21;;;;;;;3.53;2.90;;;;;;;7.19;97.04;97629.25;5064749;28;20488;-70
2021/12/08 07:23:51;;;;;;;3.30;2.47;;;;;;;7.23;96.74;97632.53;5069848;28;20199;-71
2021/12/08 07:26:20;;;;;;;5.30;3.15;;;;;;;7.20;96.83;97640.81;5070380;28;20200;-71
2021/12/08 07:28:49;;;;;;;4.07;2.85;;;;;;;7.25;96.31;97630.59;5069983;28;20191;-71
2021/12/08 07:31:20;;;;;;;4.13;2.95;;;;;;;7.18;96.94;97635.56;5069028;28;20290;-70
2021/12/08 07:33:47;;;;;;;4.65;2.22;;;;;;;7.18;96.23;97648.94;5070088;28;20234;-70
2021/12/08 07:36:17;;;;;;;5.20;3.25;;;;;;;7.31;95.55;97652.41;5070301;28;20222;-70
2021/12/08 07:38:47;;;;;;;4.70;3.40;;;;;;;7.25;95.79;97643.97;5070519;28;20207;-70
2021/12/08 07:41:18;;;;;;;6.75;3.80;;;;;;;7.33;95.12;97654.97;5069837;28;20199;-70
2021/12/08 07:43:47;;;;;;;3.75;2.55;;;;;;;7.32;94.42;97650.56;5070596;28;20206;-70
2021/12/08 07:46:22;;;;;;;4.65;2.80;;;;;;;7.21;94.65;97661.25;5070302;28;20674;-70
2021/12/08 07:48:53;;;;;;;7.85;3.47;;;;;;;7.22;95.34;97665.63;5069355;28;20229;-70
2021/12/08 07:51:24;;;;;;;5.20;3.28;;;;;;;7.25;95.69;97655.53;5070530;28;20304;-70
2021/12/08 07:53:51;;;;;;;10.60;3.72;;;;;;;7.25;95.98;97652.00;5062498;28;20261;-70
2021/12/08 07:56:21;;;;;;;4.55;3.15;;;;;;;7.31;95.31;97648.88;5067778;28;20678;-70
2021/12/08 07:58:51;;;;;;;5.85;3.33;;;;;;;7.45;94.03;97654.03;5057892;28;20570;-71
2021/12/08 08:01:24;;;;;;;9.77;3.50;;;;;;;7.50;93.78;97656.34;5065882;28;20196;-71
2021/12/08 08:03:52;;;;;;;5.85;3.05;;;;;;;7.43;93.92;97661.31;5063158;28;20180;-70
2021/12/08 08:06:22;;;;;;;5.20;3.70;;;;;;;7.44;94.45;97664.84;5070480;28;20203;-69
2021/12/08 08:08:49;;;;;;;6.00;3.90;;;;;;;7.55;93.53;97667.56;5067668;28;20205;-70
2021/12/08 08:11:22;;;;;;;5.28;3.60;;;;;;;7.59;92.71;97670.88;5070035;28;20206;-70
2021/12/08 08:13:49;;;;;;;6.32;3.30;;;;;;;7.52;93.28;97697.25;5066789;28;20200;-72
2021/12/08 08:16:19;;;;;;;6.97;4.00;;;;;;;7.68;92.88;97708.50;5072842;28;20243;-70
2021/12/08 08:18:53;;;;;;;5.07;3.50;;;;;;;7.72;92.64;97698.41;5071654;28;20204;-71
2021/12/08 08:21:23;;;;;;;5.93;3.83;;;;;;;7.73;91.60;97700.13;5073180;28;20281;-71
2021/12/08 08:23:50;;;;;;;6.97;4.82;;;;;;;7.63;92.29;97694.63;5064173;28;20205;-71
2021/12/08 08:26:18;;;;;;;5.10;3.58;;;;;;;7.67;92.52;97680.03;5053918;28;20190;-71
2021/12/08 08:28:50;;;;;;;7.82;4.65;;;;;;;7.55;93.24;97688.97;5054290;28;20202;-72
2021/12/08 08:31:19;;;;;;;6.65;4.90;;;;;;;7.51;93.62;97690.22;5056575;28;20225;-70
2021/12/08 08:33:48;;;;;;;8.13;3.40;;;;;;;7.65;92.49;97686.47;5073747;28;20227;-72
2021/12/08 08:36:18;;;;;;;4.70;2.65;;;;;;;7.75;91.99;97690.13;5073744;28;20223;-69
2021/12/08 08:38:50;;;;;;;6.03;3.40;;;;;;;7.63;92.21;97686.59;5073738;28;20210;-72
2021/12/08 08:41:22;;;;;;;5.40;2.80;;;;;;;7.73;91.37;97684.91;5073615;28;20238;-71
2021/12/08 08:43:53;;;;;;;5.38;3.00;;;;;;;7.76;91.15;97685.66;5074349;28;20185;-70
2021/12/08 08:46:24;;;;;;;3.83;2.95;;;;;;;7.85;90.76;97687.63;5065451;28;20193;-70
2021/12/08 08:48:56;;;;;;;6.70;3.63;;;;;;;7.89;90.26;97691.75;5061411;28;20191;-70
2021/12/08 08:51:33;;;;;;;7.85;3.05;;;;;;;7.85;90.38;97687.63;5072760;28;20191;-70
2021/12/08 08:54:06;;;;;;;6.35;3.58;;;;;;;7.88;90.14;97698.09;5073547;28;20211;-71
2021/12/08 08:56:36;;;;;;;3.95;2.63;;;;;;;7.99;87.93;97706.16;5073289;28;20208;-71
2021/12/08 08:59:12;;;;;;;5.93;3.55;;;;;;;8.09;86.83;97701.75;5053350;28;20214;-70
2021/12/08 09:01:44;;;;;;;11.25;3.65;;;;;;;8.07;87.44;97711.78;5067703;28;20201;-71
2021/12/08 09:04:24;;;;;;;7.25;3.40;;;;;;;7.92;87.59;97707.59;5066792;28;20198;-70
2021/12/08 09:06:56;;;;;;;5.57;3.05;;;;;;;8.07;87.08;97695.69;5073878;28;20636;-70
2021/12/08 09:09:26;;;;;;;9.70;7.30;;;;;;;8.12;86.48;97701.56;5073345;28;20183;-70
2021/12/08 09:11:59;;;;;;;7.43;2.80;;;;;;;8.25;85.56;97711.28;5071586;28;20280;-71
2021/12/08 09:14:30;;;;;;;9.05;3.25;;;;;;;8.26;84.74;97729.09;5073347;28;21040;-71
2021/12/08 09:17:02;;;;;;;5.38;3.05;;;;;;;8.17;85.98;97745.91;5072778;28;20637;-70
2021/12/08 09:19:35;;;;;;;5.15;2.28;;;;;;;8.20;85.54;97740.31;5073206;28;20283;-72
2021/12/08 09:22:08;;;;;;;5.07;2.53;;;;;;;8.27;84.40;97736.16;5058786;28;20654;-69
2021/12/08 09:24:44;;;;;;;4.38;2.40;;;;;;;8.26;83.88;97734.47;5073306;28;20285;-72
2021/12/08 09:27:13;;;;;;;4.07;2.00;;;;;;;8.18;84.49;97750.28;5073059;28;20704;-71
2021/12/08 09:29:45;;;;;;;6.97;2.50;;;;;;;8.20;84.82;97753.69;5065461;28;20331;-69
2021/12/08 09:32:17;;;;;;;7.53;2.30;;;;;;;8.23;83.91;97756.13;5052694;28;20331;-71
2021/12/08 09:34:54;;;;;;;7.15;2.75;;;;;;;8.08;84.38;97752.84;5053403;28;20192;-71
2021/12/08 09:37:24;;;;;;;6.68;2.58;;;;;;;8.12;83.67;97757.00;5052714;28;20230;-71
2021/12/08 09:39:54;;;;;;;10.88;6.78;;;;;;;8.05;84.26;97759.28;5052428;28;20279;-71
2021/12/08 09:42:24;;;;;;;9.45;2.83;;;;;;;8.07;84.69;97757.34;5052543;28;20204;-70
2021/12/08 09:44:53;;;;;;;6.00;2.53;;;;;;;8.21;84.07;97758.94;5052659;28;20220;-70
2021/12/08 09:47:20;;;;;;;5.80;3.30;;;;;;;8.23;83.90;97751.66;5053773;28;20281;-70
2021/12/08 09:49:49;;;;;;;16.60;5.80;;;;;;;8.38;82.96;97741.53;5052971;28;20210;-70
2021/12/08 09:52:19;;;;;;;5.55;2.65;;;;;;;8.39;81.97;97726.28;5064190;28;20198;-72
2021/12/08 09:54:46;;;;;;;5.90;4.07;;;;;;;8.13;83.43;97723.84;5052656;28;20277;-70
2021/12/08 09:57:14;;;;;;;4.72;2.60;;;;;;;8.00;84.24;97720.41;5052508;28;20553;-71
2021/12/08 09:59:46;;;;;;;8.93;2.85;;;;;;;8.27;82.81;97718.25;5052585;28;20239;-71
2021/12/08 10:02:17;;;;;;;6.18;2.90;;;;;;;8.29;83.23;97713.63;5051923;28;20297;-71
2021/12/08 10:04:44;;;;;;;8.90;2.40;;;;;;;8.42;82.57;97718.06;5052244;28;20197;-72
2021/12/08 10:07:14;;;;;;;22.05;13.68;;;;;;;8.40;82.53;97715.50;5072211;28;20268;-73
2021/12/08 10:09:41;;;;;;;6.18;2.90;;;;;;;8.51;81.80;97722.69;5072543;28;20189;-72
2021/12/08 10:12:08;;;;;;;7.57;3.20;;;;;;;8.34;82.35;97727.53;5071823;28;20196;-71
2021/12/08 10:14:35;;;;;;;7.25;4.30;;;;;;;8.48;82.77;97734.50;5071936;28;20234;-72
2021/12/08 10:17:02;;;;;;;5.50;2.72;;;;;;;8.59;81.35;97739.00;5071674;28;20353;-72
2021/12/08 10:19:29;;;;;;;8.57;2.92;;;;;;;8.60;81.48;97739.88;5072175;28;20204;-72
2021/12/08 10:21:55;;;;;;;7.38;2.75;;;;;;;8.61;80.65;97747.78;5070637;28;20208;-72
2021/12/08 10:24:27;;;;;;;8.98;5.93;;;;;;;8.62;81.59;97754.03;5051989;28;20203;-72
2021/12/08 10:27:02;;;;;;;6.13;3.40;;;;;;;8.59;80.50;97749.72;5070641;28;20567;-71
2021/12/08 10:29:31;;;;;;;8.07;3.05;;;;;;;8.55;80.79;97759.88;5064962;28;20204;-73
2021/12/08 10:32:00;;;;;;;5.90;3.10;;;;;;;8.51;81.03;97762.91;5052510;28;20331;-73
2021/12/08 10:34:34;;;;;;;10.90;4.25;;;;;;;8.52;80.93;97749.41;5052056;28;20209;-73
2021/12/08 10:37:05;;;;;;;4.47;2.65;;;;;;;8.55;80.98;97748.28;5061079;28;20235;-74
2021/12/08 10:39:36;;;;;;;5.97;3.20;;;;;;;8.69;79.37;97739.16;5071168;28;20558;-74
2021/12/08 10:42:09;;;;;;;18.70;11.73;;;;;;;8.52;80.61;97727.94;5067883;28;20208;-74
2021/12/08 10:44:43;;;;;;;13.23;4.10;;;;;;;8.65;80.26;97724.25;5072286;28;20631;-73
2021/12/08 10:47:12;;;;;;;10.55;3.17;;;;;;;8.59;80.51;97725.59;5072201;28;20196;-74
2021/12/08 10:55:23;;;;;;;6.47;2.47;;;;;;;8.79;78.04;97724.00;5052287;28;20253;-72
2021/12/08 10:57:53;;;;;;;8.60;2.90;;;;;;;8.70;78.83;97720.22;5052470;28;20213;-73
2021/12/08 11:00:22;;;;;;;4.72;2.60;;;;;;;8.71;78.27;97726.47;5052621;28;20194;-73
2021/12/08 11:02:52;;;;;;;6.65;3.22;;;;;;;8.71;79.05;97730.00;5052566;28;20244;-71
2021/12/08 11:05:37;;;;;;;8.50;3.40;;;;;;;8.64;78.66;97728.78;5052000;28;20202;-73
2021/12/08 11:08:08;;;;;;;6.97;2.72;;;;;;;8.70;78.36;97743.53;5052665;28;20517;-74
2021/12/08 11:10:39;;;;;;;10.07;3.08;;;;;;;8.66;78.59;97731.31;5065980;28;20561;-72
2021/12/08 11:13:07;;;;;;;7.53;2.70;;;;;;;8.82;78.31;97734.50;5072507;28;20251;-72
2021/12/08 11:15:37;;;;;;;7.60;2.70;;;;;;;8.79;78.04;97740.09;5070412;28;20193;-72
2021/12/08 11:18:16;;;;;;;10.23;2.45;;;;;;;8.80;77.69;97749.88;5062894;28;20268;-73
2021/12/08 11:20:46;;;;;;;6.35;3.38;;;;;;;9.00;77.32;97764.38;5068602;28;20202;-75
2021/12/08 11:23:17;;;;;;;11.15;3.92;;;;;;;9.01;76.80;97763.38;5071945;28;20227;-72
2021/12/08 11:25:47;;;;;;;9.48;3.80;;;;;;;9.08;78.56;97759.22;5072265;28;20195;-73
2021/12/08 11:28:23;;;;;;;6.10;3.20;;;;;;;8.98;77.33;97747.53;5071454;28;20193;-73
2021/12/08 11:30:51;;;;;;;10.23;4.40;;;;;;;8.75;79.00;97746.69;5071572;28;20195;-72
2021/12/08 11:33:21;;;;;;;12.70;4.65;;;;;;;8.90;79.67;97750.81;5071646;28;20333;-72
2021/12/08 11:35:49;;;;;;;7.22;3.63;;;;;;;8.83;79.95;97752.28;5072441;28;20288;-73
2021/12/08 11:38:25;;;;;;;10.80;4.00;;;;;;;8.84;77.83;97754.03;5071622;28;20181;-72
2021/12/08 11:40:53;;;;;;;5.20;2.85;;;;;;;8.95;76.18;97750.44;5075464;28;20593;-73
2021/12/08 11:43:30;;;;;;;6.75;2.50;;;;;;;8.66;75.78;97747.41;5076128;28;20645;-73
2021/12/08 11:46:13;;;;;;;12.30;3.33;;;;;;;8.46;76.89;97736.47;5075881;28;20205;-73
2021/12/08 11:48:55;;;;;;;12.52;4.40;;;;;;;8.76;76.31;97737.66;5075221;28;20215;-74
2021/12/08 11:51:22;;;;;;;9.00;3.33;;;;;;;8.82;76.16;97741.69;5072317;28;20563;-73
2021/12/08 11:53:49;;;;;;;12.55;3.13;;;;;;;9.03;75.20;97741.78;5064644;28;20246;-73
2021/12/08 11:56:35;;;;;;;10.70;3.90;;;;;;;9.09;74.49;97752.00;5075109;28;20245;-73
2021/12/08 11:59:04;;;;;;;10.07;4.97;;;;;;;9.04;75.33;97757.75;5073227;28;20208;-72
2021/12/08 12:01:31;;;;;;;14.13;5.07;;;;;;;9.00;75.52;97760.81;5074294;28;20193;-71
2021/12/08 12:03:58;;;;;;;15.55;6.05;;;;;;;9.19;74.98;97763.72;5069328;28;20197;-74
2021/12/08 12:06:28;;;;;;;23.80;12.07;;;;;;;9.28;75.43;97759.44;5074844;28;20193;-73
2021/12/08 12:08:56;;;;;;;9.07;5.45;;;;;;;9.27;71.86;97757.72;5074014;28;20189;-72
2021/12/08 12:11:25;;;;;;;15.13;5.10;;;;;;;8.95;73.55;97745.97;5072839;28;20280;-72
2021/12/08 12:13:54;;;;;;;13.95;5.10;;;;;;;9.00;72.82;97742.91;5073321;28;20641;-72
2021/12/08 12:16:21;;;;;;;11.95;3.90;;;;;;;9.00;72.66;97737.53;5072511;28;20259;-72
2021/12/08 12:18:50;;;;;;;8.88;4.20;;;;;;;8.96;72.73;97736.91;5074973;28;20205;-73
2021/12/08 12:21:28;;;;;;;7.82;3.67;;;;;;;8.82;73.43;97734.50;5069415;28;20227;-72
2021/12/08 12:24:05;;;;;;;9.15;3.58;;;;;;;8.92;72.47;97737.28;5067135;28;20201;-71
2021/12/08 12:26:47;;;;;;;10.68;4.40;;;;;;;8.46;73.54;97727.56;5064475;28;20519;-72
2021/12/08 12:29:28;;;;;;;6.03;2.95;;;;;;;8.48;74.02;97733.63;5064305;28;20193;-72